sensor_id;sensor_type;location;lat;lon;timestamp;P1;durP1;ratioP1;P2;durP2;ratioP2
10244;SDS011;5167;52.164;10.530;2022-07-05T00:02:06;6.72;;;1.58;;
10244;SDS011;5167;52.164;10.530;2022-07-05T00:04:32;3.05;;;1.63;;
10244;SDS011;5167;52.164;10.530;2022-07-05T00:06:57;1.80;;;1.70;;
10244;SDS011;5167;52.164;10.530;2022-07-05T00:09:41;1.50;;;1.40;;
10244;SDS011;5167;52.164;10.530;2022-07-05T00:12:07;5.65;;;2.22;;
10244;SDS011;5167;52.164;10.530;2022-07-05T00:14:33;2.05;;;1.52;;
10244;SDS011;5167;52.164;10.530;2022-07-05T00:16:58;10.48;;;2.97;;
10244;SDS011;5167;52.164;10.530;2022-07-05T00:19:24;4.18;;;2.15;;
10244;SDS011;5167;52.164;10.530;2022-07-05T00:21:49;3.30;;;1.80;;
10244;SDS011;5167;52.164;10.530;2022-07-05T00:24:15;1.83;;;1.70;;
10244;SDS011;5167;52.164;10.530;2022-07-05T00:26:40;5.25;;;1.67;;
10244;SDS011;5167;52.164;10.530;2022-07-05T00:29:06;3.78;;;1.85;;
10244;SDS011;5167;52.164;10.530;2022-07-05T00:31:32;6.82;;;2.13;;
10244;SDS011;5167;52.164;10.530;2022-07-05T00:33:57;3.63;;;2.13;;
10244;SDS011;5167;52.164;10.530;2022-07-05T00:36:23;4.38;;;1.75;;
10244;SDS011;5167;52.164;10.530;2022-07-05T00:38:48;4.55;;;1.98;;
10244;SDS011;5167;52.164;10.530;2022-07-05T00:41:13;4.80;;;2.28;;
10244;SDS011;5167;52.164;10.530;2022-07-05T00:46:43;3.20;;;2.00;;
10244;SDS011;5167;52.164;10.530;2022-07-05T00:49:10;6.78;;;2.22;;
10244;SDS011;5167;52.164;10.530;2022-07-05T00:51:36;3.85;;;2.10;;
10244;SDS011;5167;52.164;10.530;2022-07-05T00:54:03;2.63;;;1.90;;
10244;SDS011;5167;52.164;10.530;2022-07-05T00:56:31;5.88;;;2.08;;
10244;SDS011;5167;52.164;10.530;2022-07-05T00:58:57;4.35;;;2.15;;
10244;SDS011;5167;52.164;10.530;2022-07-05T01:01:22;5.18;;;2.10;;
10244;SDS011;5167;52.164;10.530;2022-07-05T01:03:50;3.45;;;2.60;;
10244;SDS011;5167;52.164;10.530;2022-07-05T01:06:16;5.22;;;2.28;;
10244;SDS011;5167;52.164;10.530;2022-07-05T01:08:42;4.93;;;2.30;;
10244;SDS011;5167;52.164;10.530;2022-07-05T01:11:09;2.45;;;2.00;;
10244;SDS011;5167;52.164;10.530;2022-07-05T01:13:36;4.50;;;2.05;;
10244;SDS011;5167;52.164;10.530;2022-07-05T01:16:02;2.65;;;2.05;;
10244;SDS011;5167;52.164;10.530;2022-07-05T01:18:29;3.08;;;2.10;;
10244;SDS011;5167;52.164;10.530;2022-07-05T01:20:56;6.07;;;1.75;;
10244;SDS011;5167;52.164;10.530;2022-07-05T01:23:22;4.55;;;2.22;;
10244;SDS011;5167;52.164;10.530;2022-07-05T01:25:48;4.85;;;2.00;;
10244;SDS011;5167;52.164;10.530;2022-07-05T01:28:15;2.97;;;2.35;;
10244;SDS011;5167;52.164;10.530;2022-07-05T01:30:41;4.40;;;2.45;;
10244;SDS011;5167;52.164;10.530;2022-07-05T01:33:07;5.10;;;2.00;;
10244;SDS011;5167;52.164;10.530;2022-07-05T01:35:34;4.65;;;2.40;;
10244;SDS011;5167;52.164;10.530;2022-07-05T01:38:01;4.18;;;2.10;;
10244;SDS011;5167;52.164;10.530;2022-07-05T01:40:26;3.53;;;2.13;;
10244;SDS011;5167;52.164;10.530;2022-07-05T01:42:52;3.25;;;2.00;;
10244;SDS011;5167;52.164;10.530;2022-07-05T01:45:18;5.63;;;2.45;;
10244;SDS011;5167;52.164;10.530;2022-07-05T01:48:08;5.63;;;2.38;;
10244;SDS011;5167;52.164;10.530;2022-07-05T01:50:45;5.15;;;2.20;;
10244;SDS011;5167;52.164;10.530;2022-07-05T01:53:14;5.78;;;2.00;;
10244;SDS011;5167;52.164;10.530;2022-07-05T01:55:42;4.65;;;2.00;;
10244;SDS011;5167;52.164;10.530;2022-07-05T01:58:08;4.32;;;2.00;;
10244;SDS011;5167;52.164;10.530;2022-07-05T02:00:46;3.38;;;1.92;;
10244;SDS011;5167;52.164;10.530;2022-07-05T02:03:16;3.17;;;1.80;;
10244;SDS011;5167;52.164;10.530;2022-07-05T02:05:43;5.15;;;2.20;;
10244;SDS011;5167;52.164;10.530;2022-07-05T02:08:10;3.92;;;1.85;;
10244;SDS011;5167;52.164;10.530;2022-07-05T02:10:36;6.78;;;2.20;;
10244;SDS011;5167;52.164;10.530;2022-07-05T02:13:02;2.90;;;2.00;;
10244;SDS011;5167;52.164;10.530;2022-07-05T02:15:32;5.13;;;1.80;;
10244;SDS011;5167;52.164;10.530;2022-07-05T02:17:59;4.28;;;2.40;;
10244;SDS011;5167;52.164;10.530;2022-07-05T02:20:25;3.38;;;2.13;;
10244;SDS011;5167;52.164;10.530;2022-07-05T02:22:51;4.53;;;2.20;;
10244;SDS011;5167;52.164;10.530;2022-07-05T02:25:16;4.45;;;2.28;;
10244;SDS011;5167;52.164;10.530;2022-07-05T02:27:42;4.63;;;2.55;;
10244;SDS011;5167;52.164;10.530;2022-07-05T02:30:08;5.18;;;2.15;;
10244;SDS011;5167;52.164;10.530;2022-07-05T02:32:33;5.65;;;2.60;;
10244;SDS011;5167;52.164;10.530;2022-07-05T02:34:59;2.22;;;2.03;;
10244;SDS011;5167;52.164;10.530;2022-07-05T02:37:24;2.35;;;2.03;;
10244;SDS011;5167;52.164;10.530;2022-07-05T02:39:51;5.63;;;2.35;;
10244;SDS011;5167;52.164;10.530;2022-07-05T02:42:17;2.55;;;2.20;;
10244;SDS011;5167;52.164;10.530;2022-07-05T02:44:42;2.63;;;2.05;;
10244;SDS011;5167;52.164;10.530;2022-07-05T02:47:08;2.75;;;2.05;;
10244;SDS011;5167;52.164;10.530;2022-07-05T02:49:33;6.40;;;2.70;;
10244;SDS011;5167;52.164;10.530;2022-07-05T02:51:59;5.85;;;2.40;;
10244;SDS011;5167;52.164;10.530;2022-07-05T02:54:24;2.72;;;2.25;;
10244;SDS011;5167;52.164;10.530;2022-07-05T02:56:50;3.05;;;2.40;;
10244;SDS011;5167;52.164;10.530;2022-07-05T02:59:16;5.88;;;2.38;;
10244;SDS011;5167;52.164;10.530;2022-07-05T03:01:41;4.50;;;2.28;;
10244;SDS011;5167;52.164;10.530;2022-07-05T03:04:07;2.25;;;1.90;;
10244;SDS011;5167;52.164;10.530;2022-07-05T03:06:34;3.60;;;2.30;;
10244;SDS011;5167;52.164;10.530;2022-07-05T03:09:00;3.08;;;2.38;;
10244;SDS011;5167;52.164;10.530;2022-07-05T03:11:29;2.42;;;2.22;;
10244;SDS011;5167;52.164;10.530;2022-07-05T03:13:55;2.72;;;2.20;;
10244;SDS011;5167;52.164;10.530;2022-07-05T03:16:22;4.10;;;1.98;;
10244;SDS011;5167;52.164;10.530;2022-07-05T03:18:49;4.00;;;2.28;;
10244;SDS011;5167;52.164;10.530;2022-07-05T03:21:17;3.05;;;2.42;;
10244;SDS011;5167;52.164;10.530;2022-07-05T03:23:42;4.57;;;2.20;;
10244;SDS011;5167;52.164;10.530;2022-07-05T03:26:11;6.70;;;2.55;;
10244;SDS011;5167;52.164;10.530;2022-07-05T03:28:37;2.85;;;1.95;;
10244;SDS011;5167;52.164;10.530;2022-07-05T03:31:03;3.88;;;2.20;;
10244;SDS011;5167;52.164;10.530;2022-07-05T03:33:28;5.28;;;2.22;;
10244;SDS011;5167;52.164;10.530;2022-07-05T03:35:54;3.00;;;2.10;;
10244;SDS011;5167;52.164;10.530;2022-07-05T03:38:20;4.25;;;2.30;;
10244;SDS011;5167;52.164;10.530;2022-07-05T03:40:45;3.67;;;2.50;;
10244;SDS011;5167;52.164;10.530;2022-07-05T03:43:11;4.07;;;2.92;;
10244;SDS011;5167;52.164;10.530;2022-07-05T03:45:36;5.57;;;2.58;;
10244;SDS011;5167;52.164;10.530;2022-07-05T03:48:02;5.32;;;2.47;;
10244;SDS011;5167;52.164;10.530;2022-07-05T03:50:27;6.53;;;2.60;;
10244;SDS011;5167;52.164;10.530;2022-07-05T03:52:53;5.82;;;2.70;;
10244;SDS011;5167;52.164;10.530;2022-07-05T03:55:19;4.65;;;2.88;;
10244;SDS011;5167;52.164;10.530;2022-07-05T03:57:45;3.17;;;2.40;;
10244;SDS011;5167;52.164;10.530;2022-07-05T04:00:12;3.10;;;2.45;;
10244;SDS011;5167;52.164;10.530;2022-07-05T04:02:38;7.38;;;2.70;;
10244;SDS011;5167;52.164;10.530;2022-07-05T04:05:04;3.20;;;2.35;;
10244;SDS011;5167;52.164;10.530;2022-07-05T04:07:30;4.47;;;2.42;;
10244;SDS011;5167;52.164;10.530;2022-07-05T04:09:55;4.22;;;2.42;;
10244;SDS011;5167;52.164;10.530;2022-07-05T04:12:21;6.55;;;3.42;;
10244;SDS011;5167;52.164;10.530;2022-07-05T04:14:47;4.50;;;2.70;;
10244;SDS011;5167;52.164;10.530;2022-07-05T04:17:12;5.93;;;2.30;;
10244;SDS011;5167;52.164;10.530;2022-07-05T04:19:38;6.93;;;2.67;;
10244;SDS011;5167;52.164;10.530;2022-07-05T04:22:03;6.47;;;3.05;;
10244;SDS011;5167;52.164;10.530;2022-07-05T04:24:29;4.80;;;2.38;;
10244;SDS011;5167;52.164;10.530;2022-07-05T04:26:54;6.45;;;3.22;;
10244;SDS011;5167;52.164;10.530;2022-07-05T04:29:20;3.05;;;2.50;;
10244;SDS011;5167;52.164;10.530;2022-07-05T04:31:45;3.90;;;2.75;;
10244;SDS011;5167;52.164;10.530;2022-07-05T04:34:11;5.25;;;2.60;;
10244;SDS011;5167;52.164;10.530;2022-07-05T04:36:37;6.70;;;3.20;;
10244;SDS011;5167;52.164;10.530;2022-07-05T04:39:05;9.23;;;3.00;;
10244;SDS011;5167;52.164;10.530;2022-07-05T04:41:31;3.13;;;2.50;;
10244;SDS011;5167;52.164;10.530;2022-07-05T04:43:57;6.57;;;3.00;;
10244;SDS011;5167;52.164;10.530;2022-07-05T04:46:22;5.28;;;2.50;;
10244;SDS011;5167;52.164;10.530;2022-07-05T04:48:48;5.50;;;3.03;;
10244;SDS011;5167;52.164;10.530;2022-07-05T04:51:13;4.03;;;2.90;;
10244;SDS011;5167;52.164;10.530;2022-07-05T04:53:39;4.47;;;2.80;;
10244;SDS011;5167;52.164;10.530;2022-07-05T04:56:04;3.25;;;2.67;;
10244;SDS011;5167;52.164;10.530;2022-07-05T04:58:31;7.47;;;3.42;;
10244;SDS011;5167;52.164;10.530;2022-07-05T05:00:56;3.95;;;2.63;;
10244;SDS011;5167;52.164;10.530;2022-07-05T05:03:22;7.22;;;3.15;;
10244;SDS011;5167;52.164;10.530;2022-07-05T05:05:47;3.17;;;2.78;;
10244;SDS011;5167;52.164;10.530;2022-07-05T05:08:13;5.82;;;3.08;;
10244;SDS011;5167;52.164;10.530;2022-07-05T05:10:38;5.03;;;3.28;;
10244;SDS011;5167;52.164;10.530;2022-07-05T05:13:04;8.63;;;3.80;;
10244;SDS011;5167;52.164;10.530;2022-07-05T05:15:29;5.82;;;2.85;;
10244;SDS011;5167;52.164;10.530;2022-07-05T05:17:55;3.03;;;2.72;;
10244;SDS011;5167;52.164;10.530;2022-07-05T05:20:20;6.53;;;3.60;;
10244;SDS011;5167;52.164;10.530;2022-07-05T05:22:46;7.18;;;4.13;;
10244;SDS011;5167;52.164;10.530;2022-07-05T05:25:12;4.03;;;3.35;;
10244;SDS011;5167;52.164;10.530;2022-07-05T05:27:45;5.93;;;3.05;;
10244;SDS011;5167;52.164;10.530;2022-07-05T05:30:12;4.55;;;3.20;;
10244;SDS011;5167;52.164;10.530;2022-07-05T05:32:38;8.57;;;3.47;;
10244;SDS011;5167;52.164;10.530;2022-07-05T05:35:04;8.50;;;3.17;;
10244;SDS011;5167;52.164;10.530;2022-07-05T05:37:30;6.30;;;3.08;;
10244;SDS011;5167;52.164;10.530;2022-07-05T05:39:56;5.25;;;3.30;;
10244;SDS011;5167;52.164;10.530;2022-07-05T05:42:21;5.07;;;3.00;;
10244;SDS011;5167;52.164;10.530;2022-07-05T05:44:47;7.35;;;3.28;;
10244;SDS011;5167;52.164;10.530;2022-07-05T05:47:12;4.75;;;3.67;;
10244;SDS011;5167;52.164;10.530;2022-07-05T05:49:38;3.40;;;3.13;;
10244;SDS011;5167;52.164;10.530;2022-07-05T05:52:03;6.60;;;3.40;;
10244;SDS011;5167;52.164;10.530;2022-07-05T05:54:29;7.05;;;2.90;;
10244;SDS011;5167;52.164;10.530;2022-07-05T05:56:54;4.30;;;3.20;;
10244;SDS011;5167;52.164;10.530;2022-07-05T05:59:20;6.85;;;3.00;;
10244;SDS011;5167;52.164;10.530;2022-07-05T06:01:45;5.82;;;2.80;;
10244;SDS011;5167;52.164;10.530;2022-07-05T06:04:11;9.18;;;3.45;;
10244;SDS011;5167;52.164;10.530;2022-07-05T06:06:36;7.40;;;3.25;;
10244;SDS011;5167;52.164;10.530;2022-07-05T06:09:02;4.35;;;3.25;;
10244;SDS011;5167;52.164;10.530;2022-07-05T06:11:28;5.25;;;2.70;;
10244;SDS011;5167;52.164;10.530;2022-07-05T06:13:53;5.47;;;3.30;;
10244;SDS011;5167;52.164;10.530;2022-07-05T06:16:19;6.20;;;3.35;;
10244;SDS011;5167;52.164;10.530;2022-07-05T06:18:44;7.25;;;2.97;;
10244;SDS011;5167;52.164;10.530;2022-07-05T06:21:10;8.73;;;2.67;;
10244;SDS011;5167;52.164;10.530;2022-07-05T06:23:35;3.03;;;2.40;;
10244;SDS011;5167;52.164;10.530;2022-07-05T06:26:01;5.15;;;2.95;;
10244;SDS011;5167;52.164;10.530;2022-07-05T06:28:26;6.78;;;2.67;;
10244;SDS011;5167;52.164;10.530;2022-07-05T06:30:52;10.82;;;2.72;;
10244;SDS011;5167;52.164;10.530;2022-07-05T06:33:18;4.32;;;2.60;;
10244;SDS011;5167;52.164;10.530;2022-07-05T06:35:44;4.45;;;2.25;;
10244;SDS011;5167;52.164;10.530;2022-07-05T06:38:10;7.43;;;2.65;;
10244;SDS011;5167;52.164;10.530;2022-07-05T06:40:36;3.47;;;2.55;;
10244;SDS011;5167;52.164;10.530;2022-07-05T06:43:03;7.00;;;2.35;;
10244;SDS011;5167;52.164;10.530;2022-07-05T06:45:30;5.05;;;2.40;;
10244;SDS011;5167;52.164;10.530;2022-07-05T06:47:57;7.30;;;3.22;;
10244;SDS011;5167;52.164;10.530;2022-07-05T06:50:30;5.97;;;3.33;;
10244;SDS011;5167;52.164;10.530;2022-07-05T06:52:57;18.67;;;3.80;;
10244;SDS011;5167;52.164;10.530;2022-07-05T06:55:23;4.72;;;2.95;;
10244;SDS011;5167;52.164;10.530;2022-07-05T06:57:55;10.70;;;3.65;;
10244;SDS011;5167;52.164;10.530;2022-07-05T07:00:26;19.30;;;3.75;;
10244;SDS011;5167;52.164;10.530;2022-07-05T07:02:52;8.75;;;4.22;;
10244;SDS011;5167;52.164;10.530;2022-07-05T07:05:17;9.95;;;4.53;;
10244;SDS011;5167;52.164;10.530;2022-07-05T07:07:43;10.63;;;3.58;;
10244;SDS011;5167;52.164;10.530;2022-07-05T07:10:27;8.30;;;3.60;;
10244;SDS011;5167;52.164;10.530;2022-07-05T07:12:53;10.75;;;3.78;;
10244;SDS011;5167;52.164;10.530;2022-07-05T07:15:18;10.35;;;3.58;;
10244;SDS011;5167;52.164;10.530;2022-07-05T07:17:44;8.82;;;4.00;;
10244;SDS011;5167;52.164;10.530;2022-07-05T07:20:09;6.97;;;3.22;;
10244;SDS011;5167;52.164;10.530;2022-07-05T07:22:35;8.98;;;3.50;;
10244;SDS011;5167;52.164;10.530;2022-07-05T07:25:01;9.27;;;4.07;;
10244;SDS011;5167;52.164;10.530;2022-07-05T07:27:27;7.57;;;3.15;;
10244;SDS011;5167;52.164;10.530;2022-07-05T07:29:53;5.82;;;2.70;;
10244;SDS011;5167;52.164;10.530;2022-07-05T07:32:19;7.78;;;2.65;;
10244;SDS011;5167;52.164;10.530;2022-07-05T07:34:44;6.65;;;3.33;;
10244;SDS011;5167;52.164;10.530;2022-07-05T07:37:10;5.78;;;2.60;;
10244;SDS011;5167;52.164;10.530;2022-07-05T07:39:38;7.78;;;2.75;;
10244;SDS011;5167;52.164;10.530;2022-07-05T07:42:04;7.45;;;2.90;;
10244;SDS011;5167;52.164;10.530;2022-07-05T07:44:30;7.97;;;3.30;;
10244;SDS011;5167;52.164;10.530;2022-07-05T07:46:56;8.15;;;2.47;;
10244;SDS011;5167;52.164;10.530;2022-07-05T07:49:21;9.18;;;2.97;;
10244;SDS011;5167;52.164;10.530;2022-07-05T07:51:47;3.55;;;2.70;;
10244;SDS011;5167;52.164;10.530;2022-07-05T07:54:13;5.97;;;2.83;;
10244;SDS011;5167;52.164;10.530;2022-07-05T07:56:38;3.97;;;2.40;;
10244;SDS011;5167;52.164;10.530;2022-07-05T07:59:04;7.32;;;2.50;;
10244;SDS011;5167;52.164;10.530;2022-07-05T08:01:29;5.45;;;2.22;;
10244;SDS011;5167;52.164;10.530;2022-07-05T08:03:56;8.93;;;2.63;;
10244;SDS011;5167;52.164;10.530;2022-07-05T08:06:21;9.48;;;2.38;;
10244;SDS011;5167;52.164;10.530;2022-07-05T08:08:47;3.88;;;2.50;;
10244;SDS011;5167;52.164;10.530;2022-07-05T08:11:13;4.38;;;1.92;;
10244;SDS011;5167;52.164;10.530;2022-07-05T08:13:39;4.28;;;1.90;;
10244;SDS011;5167;52.164;10.530;2022-07-05T08:16:06;3.47;;;1.80;;
10244;SDS011;5167;52.164;10.530;2022-07-05T08:18:32;3.83;;;1.70;;
10244;SDS011;5167;52.164;10.530;2022-07-05T08:21:17;4.18;;;2.05;;
10244;SDS011;5167;52.164;10.530;2022-07-05T08:24:01;4.53;;;1.67;;
10244;SDS011;5167;52.164;10.530;2022-07-05T08:26:28;7.15;;;2.40;;
10244;SDS011;5167;52.164;10.530;2022-07-05T08:28:58;3.15;;;1.85;;
10244;SDS011;5167;52.164;10.530;2022-07-05T08:31:25;4.43;;;1.85;;
10244;SDS011;5167;52.164;10.530;2022-07-05T08:33:51;7.53;;;2.38;;
10244;SDS011;5167;52.164;10.530;2022-07-05T08:36:17;3.85;;;1.75;;
10244;SDS011;5167;52.164;10.530;2022-07-05T08:38:42;5.82;;;1.80;;
10244;SDS011;5167;52.164;10.530;2022-07-05T08:41:08;4.25;;;2.00;;
10244;SDS011;5167;52.164;10.530;2022-07-05T08:43:35;4.43;;;1.92;;
10244;SDS011;5167;52.164;10.530;2022-07-05T08:46:04;3.78;;;1.90;;
10244;SDS011;5167;52.164;10.530;2022-07-05T08:48:33;5.22;;;1.63;;
10244;SDS011;5167;52.164;10.530;2022-07-05T08:51:28;5.55;;;1.40;;
10244;SDS011;5167;52.164;10.530;2022-07-05T08:53:53;4.28;;;1.70;;
10244;SDS011;5167;52.164;10.530;2022-07-05T08:56:20;2.75;;;1.88;;
10244;SDS011;5167;52.164;10.530;2022-07-05T08:58:46;4.22;;;1.55;;
10244;SDS011;5167;52.164;10.530;2022-07-05T09:01:14;2.08;;;1.80;;
10244;SDS011;5167;52.164;10.530;2022-07-05T09:03:43;3.42;;;1.60;;
10244;SDS011;5167;52.164;10.530;2022-07-05T09:06:17;3.63;;;1.75;;
10244;SDS011;5167;52.164;10.530;2022-07-05T09:08:47;4.03;;;1.50;;
10244;SDS011;5167;52.164;10.530;2022-07-05T09:11:16;2.42;;;1.85;;
10244;SDS011;5167;52.164;10.530;2022-07-05T09:13:42;2.00;;;1.80;;
10244;SDS011;5167;52.164;10.530;2022-07-05T09:16:13;1.92;;;1.83;;
10244;SDS011;5167;52.164;10.530;2022-07-05T09:23:45;2.13;;;1.60;;
10244;SDS011;5167;52.164;10.530;2022-07-05T09:29:18;1.65;;;1.55;;
10244;SDS011;5167;52.164;10.530;2022-07-05T09:31:46;4.13;;;1.90;;
10244;SDS011;5167;52.164;10.530;2022-07-05T09:34:18;2.70;;;1.65;;
10244;SDS011;5167;52.164;10.530;2022-07-05T09:37:00;2.72;;;1.40;;
10244;SDS011;5167;52.164;10.530;2022-07-05T09:42:17;1.95;;;1.25;;
10244;SDS011;5167;52.164;10.530;2022-07-05T09:44:48;2.53;;;1.10;;
10244;SDS011;5167;52.164;10.530;2022-07-05T09:47:18;4.80;;;1.15;;
10244;SDS011;5167;52.164;10.530;2022-07-05T09:49:49;1.10;;;1.00;;
10244;SDS011;5167;52.164;10.530;2022-07-05T09:52:33;3.15;;;1.20;;
10244;SDS011;5167;52.164;10.530;2022-07-05T09:57:32;8.07;;;1.05;;
10244;SDS011;5167;52.164;10.530;2022-07-05T09:59:59;2.35;;;1.10;;
10244;SDS011;5167;52.164;10.530;2022-07-05T10:02:48;2.42;;;1.20;;
10244;SDS011;5167;52.164;10.530;2022-07-05T10:05:25;2.83;;;1.13;;
10244;SDS011;5167;52.164;10.530;2022-07-05T10:07:52;1.85;;;1.00;;
10244;SDS011;5167;52.164;10.530;2022-07-05T10:10:23;1.20;;;1.13;;
10244;SDS011;5167;52.164;10.530;2022-07-05T10:12:51;3.50;;;1.30;;
10244;SDS011;5167;52.164;10.530;2022-07-05T10:15:25;1.83;;;1.20;;
10244;SDS011;5167;52.164;10.530;2022-07-05T10:17:59;1.15;;;1.10;;
10244;SDS011;5167;52.164;10.530;2022-07-05T10:20:38;2.40;;;1.25;;
10244;SDS011;5167;52.164;10.530;2022-07-05T10:23:10;3.67;;;2.17;;
10244;SDS011;5167;52.164;10.530;2022-07-05T10:25:36;1.40;;;1.10;;
10244;SDS011;5167;52.164;10.530;2022-07-05T10:28:02;2.05;;;1.20;;
10244;SDS011;5167;52.164;10.530;2022-07-05T10:30:29;2.45;;;1.10;;
10244;SDS011;5167;52.164;10.530;2022-07-05T10:32:55;1.60;;;1.20;;
10244;SDS011;5167;52.164;10.530;2022-07-05T10:35:21;1.40;;;1.30;;
10244;SDS011;5167;52.164;10.530;2022-07-05T10:37:47;2.15;;;1.23;;
10244;SDS011;5167;52.164;10.530;2022-07-05T10:40:14;3.42;;;1.60;;
10244;SDS011;5167;52.164;10.530;2022-07-05T10:42:42;1.92;;;1.50;;
10244;SDS011;5167;52.164;10.530;2022-07-05T10:45:23;1.33;;;1.10;;
10244;SDS011;5167;52.164;10.530;2022-07-05T10:50:46;1.65;;;1.00;;
10244;SDS011;5167;52.164;10.530;2022-07-05T10:53:14;2.40;;;1.60;;
10244;SDS011;5167;52.164;10.530;2022-07-05T10:55:53;5.63;;;1.63;;
10244;SDS011;5167;52.164;10.530;2022-07-05T10:58:21;1.20;;;1.10;;
10244;SDS011;5167;52.164;10.530;2022-07-05T11:03:53;1.30;;;1.10;;
10244;SDS011;5167;52.164;10.530;2022-07-05T11:16:44;1.95;;;1.00;;
10244;SDS011;5167;52.164;10.530;2022-07-05T11:19:10;1.13;;;1.00;;
10244;SDS011;5167;52.164;10.530;2022-07-05T11:21:38;4.68;;;1.23;;
10244;SDS011;5167;52.164;10.530;2022-07-05T11:24:24;1.27;;;1.17;;
10244;SDS011;5167;52.164;10.530;2022-07-05T11:26:52;5.70;;;0.90;;
10244;SDS011;5167;52.164;10.530;2022-07-05T11:32:07;2.47;;;0.93;;
10244;SDS011;5167;52.164;10.530;2022-07-05T11:34:33;1.30;;;1.10;;
10244;SDS011;5167;52.164;10.530;2022-07-05T11:42:32;0.95;;;0.90;;
10244;SDS011;5167;52.164;10.530;2022-07-05T11:44:59;2.92;;;1.20;;
10244;SDS011;5167;52.164;10.530;2022-07-05T11:47:26;1.08;;;0.90;;
10244;SDS011;5167;52.164;10.530;2022-07-05T11:49:55;1.10;;;1.00;;
10244;SDS011;5167;52.164;10.530;2022-07-05T11:52:26;7.90;;;1.65;;
10244;SDS011;5167;52.164;10.530;2022-07-05T11:54:56;4.28;;;1.00;;
10244;SDS011;5167;52.164;10.530;2022-07-05T11:57:22;1.63;;;0.70;;
10244;SDS011;5167;52.164;10.530;2022-07-05T11:59:49;0.85;;;0.85;;
10244;SDS011;5167;52.164;10.530;2022-07-05T12:02:15;0.93;;;0.90;;
10244;SDS011;5167;52.164;10.530;2022-07-05T12:04:41;1.13;;;0.80;;
10244;SDS011;5167;52.164;10.530;2022-07-05T12:07:23;3.60;;;1.38;;
10244;SDS011;5167;52.164;10.530;2022-07-05T12:09:51;3.55;;;0.80;;
10244;SDS011;5167;52.164;10.530;2022-07-05T12:12:35;2.38;;;1.08;;
10244;SDS011;5167;52.164;10.530;2022-07-05T12:15:13;0.93;;;0.80;;
10244;SDS011;5167;52.164;10.530;2022-07-05T12:17:43;1.00;;;0.80;;
10244;SDS011;5167;52.164;10.530;2022-07-05T12:20:11;3.03;;;0.90;;
10244;SDS011;5167;52.164;10.530;2022-07-05T12:22:42;3.10;;;0.93;;
10244;SDS011;5167;52.164;10.530;2022-07-05T12:25:10;1.55;;;0.80;;
10244;SDS011;5167;52.164;10.530;2022-07-05T12:27:38;2.67;;;0.93;;
10244;SDS011;5167;52.164;10.530;2022-07-05T12:30:06;1.70;;;0.98;;
10244;SDS011;5167;52.164;10.530;2022-07-05T12:32:33;4.75;;;1.02;;
10244;SDS011;5167;52.164;10.530;2022-07-05T12:35:27;1.90;;;1.05;;
10244;SDS011;5167;52.164;10.530;2022-07-05T12:38:07;0.88;;;0.80;;
10244;SDS011;5167;52.164;10.530;2022-07-05T12:40:39;3.20;;;1.20;;
10244;SDS011;5167;52.164;10.530;2022-07-05T12:43:11;0.90;;;0.90;;
10244;SDS011;5167;52.164;10.530;2022-07-05T12:45:39;1.35;;;0.88;;
10244;SDS011;5167;52.164;10.530;2022-07-05T12:48:07;6.38;;;0.95;;
10244;SDS011;5167;52.164;10.530;2022-07-05T12:50:44;0.90;;;0.85;;
10244;SDS011;5167;52.164;10.530;2022-07-05T12:53:14;2.40;;;0.82;;
10244;SDS011;5167;52.164;10.530;2022-07-05T12:58:51;2.22;;;1.25;;
10244;SDS011;5167;52.164;10.530;2022-07-05T13:04:09;0.82;;;0.82;;
10244;SDS011;5167;52.164;10.530;2022-07-05T13:06:42;2.90;;;1.45;;
10244;SDS011;5167;52.164;10.530;2022-07-05T13:12:13;1.65;;;0.80;;
10244;SDS011;5167;52.164;10.530;2022-07-05T13:14:50;0.70;;;0.70;;
10244;SDS011;5167;52.164;10.530;2022-07-05T13:17:18;0.95;;;0.60;;
10244;SDS011;5167;52.164;10.530;2022-07-05T13:19:48;3.50;;;0.82;;
10244;SDS011;5167;52.164;10.530;2022-07-05T13:22:15;1.27;;;0.60;;
10244;SDS011;5167;52.164;10.530;2022-07-05T13:24:41;1.35;;;0.80;;
10244;SDS011;5167;52.164;10.530;2022-07-05T13:27:07;0.82;;;0.80;;
10244;SDS011;5167;52.164;10.530;2022-07-05T13:29:34;2.53;;;0.80;;
10244;SDS011;5167;52.164;10.530;2022-07-05T13:31:59;2.72;;;1.30;;
10244;SDS011;5167;52.164;10.530;2022-07-05T13:34:25;0.70;;;0.70;;
10244;SDS011;5167;52.164;10.530;2022-07-05T13:36:51;3.55;;;0.65;;
10244;SDS011;5167;52.164;10.530;2022-07-05T13:39:18;4.55;;;0.70;;
10244;SDS011;5167;52.164;10.530;2022-07-05T13:41:47;1.92;;;0.60;;
10244;SDS011;5167;52.164;10.530;2022-07-05T13:44:14;2.38;;;0.93;;
10244;SDS011;5167;52.164;10.530;2022-07-05T13:46:40;0.80;;;0.70;;
10244;SDS011;5167;52.164;10.530;2022-07-05T13:49:05;1.42;;;0.60;;
10244;SDS011;5167;52.164;10.530;2022-07-05T13:51:31;1.02;;;0.82;;
10244;SDS011;5167;52.164;10.530;2022-07-05T13:53:56;1.90;;;0.70;;
10244;SDS011;5167;52.164;10.530;2022-07-05T13:56:22;0.50;;;0.50;;
10244;SDS011;5167;52.164;10.530;2022-07-05T13:58:47;1.55;;;0.68;;
10244;SDS011;5167;52.164;10.530;2022-07-05T14:01:13;0.93;;;0.73;;
10244;SDS011;5167;52.164;10.530;2022-07-05T14:03:39;1.80;;;1.08;;
10244;SDS011;5167;52.164;10.530;2022-07-05T14:06:04;0.75;;;0.70;;
10244;SDS011;5167;52.164;10.530;2022-07-05T14:08:30;4.25;;;0.80;;
10244;SDS011;5167;52.164;10.530;2022-07-05T14:10:56;1.63;;;0.55;;
10244;SDS011;5167;52.164;10.530;2022-07-05T14:13:22;0.80;;;0.73;;
10244;SDS011;5167;52.164;10.530;2022-07-05T14:15:49;0.70;;;0.40;;
10244;SDS011;5167;52.164;10.530;2022-07-05T14:18:15;0.70;;;0.70;;
10244;SDS011;5167;52.164;10.530;2022-07-05T14:20:42;1.38;;;0.60;;
10244;SDS011;5167;52.164;10.530;2022-07-05T14:23:09;1.10;;;0.73;;
10244;SDS011;5167;52.164;10.530;2022-07-05T14:25:35;0.73;;;0.73;;
10244;SDS011;5167;52.164;10.530;2022-07-05T14:28:01;1.55;;;0.90;;
10244;SDS011;5167;52.164;10.530;2022-07-05T14:30:32;4.25;;;0.93;;
10244;SDS011;5167;52.164;10.530;2022-07-05T14:32:58;1.92;;;0.88;;
10244;SDS011;5167;52.164;10.530;2022-07-05T14:35:24;3.55;;;0.70;;
10244;SDS011;5167;52.164;10.530;2022-07-05T14:37:49;0.65;;;0.65;;
10244;SDS011;5167;52.164;10.530;2022-07-05T14:40:15;1.63;;;0.93;;
10244;SDS011;5167;52.164;10.530;2022-07-05T14:42:40;2.13;;;0.80;;
10244;SDS011;5167;52.164;10.530;2022-07-05T14:45:06;3.75;;;0.98;;
10244;SDS011;5167;52.164;10.530;2022-07-05T14:47:31;1.60;;;0.80;;
10244;SDS011;5167;52.164;10.530;2022-07-05T14:49:57;0.77;;;0.70;;
10244;SDS011;5167;52.164;10.530;2022-07-05T14:52:23;3.60;;;0.90;;
10244;SDS011;5167;52.164;10.530;2022-07-05T14:54:48;3.65;;;0.82;;
10244;SDS011;5167;52.164;10.530;2022-07-05T14:57:14;1.38;;;0.73;;
10244;SDS011;5167;52.164;10.530;2022-07-05T14:59:40;1.42;;;0.73;;
10244;SDS011;5167;52.164;10.530;2022-07-05T15:02:06;4.07;;;0.80;;
10244;SDS011;5167;52.164;10.530;2022-07-05T15:04:33;1.75;;;0.75;;
10244;SDS011;5167;52.164;10.530;2022-07-05T15:06:59;2.80;;;0.75;;
10244;SDS011;5167;52.164;10.530;2022-07-05T15:09:24;1.10;;;0.70;;
10244;SDS011;5167;52.164;10.530;2022-07-05T15:11:50;2.25;;;0.90;;
10244;SDS011;5167;52.164;10.530;2022-07-05T15:14:16;2.95;;;1.13;;
10244;SDS011;5167;52.164;10.530;2022-07-05T15:16:42;4.05;;;2.50;;
10244;SDS011;5167;52.164;10.530;2022-07-05T15:19:07;1.17;;;1.00;;
10244;SDS011;5167;52.164;10.530;2022-07-05T15:21:34;1.92;;;0.63;;
10244;SDS011;5167;52.164;10.530;2022-07-05T15:23:59;0.82;;;0.75;;
10244;SDS011;5167;52.164;10.530;2022-07-05T15:26:26;2.22;;;1.20;;
10244;SDS011;5167;52.164;10.530;2022-07-05T15:28:55;3.45;;;1.75;;
10244;SDS011;5167;52.164;10.530;2022-07-05T15:31:30;1.80;;;0.60;;
10244;SDS011;5167;52.164;10.530;2022-07-05T15:33:59;1.60;;;0.80;;
10244;SDS011;5167;52.164;10.530;2022-07-05T15:36:29;1.10;;;0.60;;
10244;SDS011;5167;52.164;10.530;2022-07-05T15:39:01;0.98;;;0.88;;
10244;SDS011;5167;52.164;10.530;2022-07-05T15:41:28;1.10;;;1.00;;